Time;durP1;ratioP1;P1;durP2;ratioP2;P2;SDS_P1;SDS_P2;PMS_P1;PMS_P2;Temp;Humidity;BMP_temperature;BMP_pressure;BME280_temperature;BME280_humidity;BME280_pressure;Samples;Min_cycle;Max_cycle;Signal;HPM_P1;HPM_P2
2022/04/22 00:01:13;;;;;;;11.73;7.43;;;;;;;9.70;75.45;100729.84;5344817;27;20388;-66
2022/04/22 00:03:44;;;;;;;11.57;7.60;;;;;;;9.68;75.49;100726.44;5362525;27;20035;-67
2022/04/22 00:06:16;;;;;;;9.63;7.45;;;;;;;9.62;75.21;100726.91;5350980;27;20029;-67
2022/04/22 00:08:47;;;;;;;11.57;7.88;;;;;;;9.67;75.58;100726.56;5354021;27;20031;-66
2022/04/22 00:11:31;;;;;;;11.13;7.40;;;;;;;9.61;75.96;100718.06;5343594;27;20022;-67
2022/04/22 00:14:03;;;;;;;11.82;7.35;;;;;;;9.59;75.76;100732.47;5355205;27;20559;-67
2022/04/22 00:16:35;;;;;;;10.25;7.55;;;;;;;9.51;75.96;100727.72;5346903;27;20061;-66
2022/04/22 00:19:06;;;;;;;12.48;8.10;;;;;;;9.45;76.32;100720.16;5350467;27;20476;-67
2022/04/22 00:21:41;;;;;;;11.55;8.23;;;;;;;9.52;77.42;100723.22;5350375;27;20019;-67
2022/04/22 00:24:14;;;;;;;11.63;8.45;;;;;;;9.49;76.78;100724.31;5348045;27;20053;-66
2022/04/22 00:26:45;;;;;;;14.23;8.07;;;;;;;9.41;77.00;100721.34;5349455;27;20031;-67
2022/04/22 00:29:17;;;;;;;11.68;8.25;;;;;;;9.33;77.08;100721.91;5345018;27;20487;-67
2022/04/22 00:31:48;;;;;;;11.30;8.80;;;;;;;9.36;77.29;100713.72;5353245;27;20582;-67
2022/04/22 00:34:20;;;;;;;13.55;8.57;;;;;;;9.31;77.90;100715.84;5350185;27;20061;-67
2022/04/22 00:36:51;;;;;;;11.10;8.30;;;;;;;9.30;78.16;100710.63;5342892;27;20501;-67
2022/04/22 00:39:24;;;;;;;10.85;8.57;;;;;;;9.30;78.20;100715.97;5348638;27;20133;-67
2022/04/22 00:41:55;;;;;;;12.48;8.35;;;;;;;9.23;78.08;100711.09;5351937;27;20083;-67
2022/04/22 00:44:26;;;;;;;12.32;8.40;;;;;;;9.23;78.30;100713.75;5354322;27;20488;-67
2022/04/22 00:46:58;;;;;;;12.40;8.68;;;;;;;9.21;79.23;100707.69;5347365;27;20049;-66
2022/04/22 00:49:29;;;;;;;11.27;8.25;;;;;;;9.20;79.03;100705.13;5343508;27;20022;-66
2022/04/22 00:52:03;;;;;;;12.10;7.95;;;;;;;9.19;80.39;100703.47;5350410;27;20018;-67
2022/04/22 00:54:34;;;;;;;11.05;8.43;;;;;;;9.16;80.21;100701.00;5351428;27;20027;-67
2022/04/22 00:57:06;;;;;;;10.50;8.27;;;;;;;9.08;80.27;100698.91;5352289;27;20023;-67
2022/04/22 00:59:38;;;;;;;12.73;8.35;;;;;;;8.99;79.90;100689.78;5354287;27;20540;-67
2022/04/22 01:02:09;;;;;;;11.82;8.35;;;;;;;9.02;80.46;100691.38;5352421;27;20540;-67
2022/04/22 01:10:21;;;;;;;13.95;9.35;;;;;;;8.93;80.58;100686.72;5354369;27;20039;-66
2022/04/22 01:12:52;;;;;;;11.93;8.70;;;;;;;8.91;81.58;100680.66;5346413;27;20373;-66
2022/04/22 01:15:24;;;;;;;14.85;8.38;;;;;;;8.91;81.87;100670.00;5353879;27;20075;-66
2022/04/22 01:17:55;;;;;;;14.07;8.90;;;;;;;8.87;81.87;100679.16;5354240;27;20116;-66
2022/04/22 01:20:27;;;;;;;13.75;10.05;;;;;;;8.86;82.17;100680.13;5351155;27;20054;-67
2022/04/22 01:22:58;;;;;;;13.05;8.93;;;;;;;8.84;82.37;100677.59;5343910;27;20427;-67
2022/04/22 01:25:29;;;;;;;14.18;9.30;;;;;;;8.78;83.15;100676.22;5351004;27;20115;-67
2022/04/22 01:28:01;;;;;;;13.60;9.57;;;;;;;8.83;82.95;100678.53;5348163;27;20023;-66
2022/04/22 01:30:33;;;;;;;12.57;9.18;;;;;;;8.86;82.85;100674.81;5354661;27;20035;-67
2022/04/22 01:33:04;;;;;;;11.80;8.73;;;;;;;8.79;82.75;100669.94;5350600;27;20030;-67
2022/04/22 01:35:35;;;;;;;15.30;9.77;;;;;;;8.81;83.01;100670.66;5355110;27;20487;-67
2022/04/22 01:38:06;;;;;;;12.48;9.13;;;;;;;8.81;83.57;100664.50;5352983;27;20031;-67
2022/04/22 01:40:38;;;;;;;12.48;9.05;;;;;;;8.89;84.76;100671.94;5344370;27;20373;-67
2022/04/22 01:43:09;;;;;;;12.10;9.57;;;;;;;8.88;83.95;100671.09;5347371;27;21355;-67
2022/04/22 01:45:40;;;;;;;13.55;9.82;;;;;;;8.87;83.92;100663.22;5345017;27;20030;-67
2022/04/22 01:48:12;;;;;;;13.73;9.20;;;;;;;8.85;84.01;100665.97;5356419;27;20034;-67
2022/04/22 01:50:43;;;;;;;14.15;10.25;;;;;;;8.82;84.57;100664.41;5359301;27;20030;-67
2022/04/22 01:53:14;;;;;;;15.00;9.70;;;;;;;8.81;84.39;100667.16;5342588;27;20030;-67
2022/04/22 01:55:46;;;;;;;14.80;10.10;;;;;;;8.74;84.85;100669.41;5354103;27;20035;-66
2022/04/22 01:58:17;;;;;;;13.70;9.95;;;;;;;8.74;84.59;100658.75;5354858;27;20121;-67
2022/04/22 02:00:48;;;;;;;14.38;10.18;;;;;;;8.70;85.82;100667.91;5345990;27;20019;-67
2022/04/22 02:03:20;;;;;;;13.85;9.70;;;;;;;8.68;86.09;100666.34;5343217;27;20122;-66
2022/04/22 02:05:51;;;;;;;15.73;10.00;;;;;;;8.60;85.57;100666.88;5343954;27;20027;-66
2022/04/22 02:08:22;;;;;;;12.20;9.55;;;;;;;8.66;85.90;100665.59;5349228;27;20034;-67
2022/04/22 02:10:53;;;;;;;14.77;10.60;;;;;;;8.59;86.43;100670.50;5355255;27;20081;-67
2022/04/22 02:13:25;;;;;;;12.15;9.88;;;;;;;8.54;86.28;100668.16;5349001;27;20413;-66
2022/04/22 02:15:56;;;;;;;14.13;10.45;;;;;;;8.52;86.09;100666.59;5353676;27;20054;-66
2022/04/22 02:18:28;;;;;;;17.73;11.38;;;;;;;8.54;87.24;100665.50;5353418;27;20030;-67
2022/04/22 02:20:59;;;;;;;16.42;10.48;;;;;;;8.45;86.64;100666.16;5348415;27;20022;-67
2022/04/22 02:23:31;;;;;;;18.88;11.23;;;;;;;8.44;86.52;100664.47;5350375;27;20037;-67
2022/04/22 02:26:03;;;;;;;16.30;10.55;;;;;;;8.43;87.24;100654.78;5347601;27;20023;-67
2022/04/22 02:28:35;;;;;;;16.27;10.68;;;;;;;8.45;87.70;100663.50;5350390;27;20071;-66
2022/04/22 02:31:11;;;;;;;14.23;11.13;;;;;;;8.43;87.71;100662.75;5343100;27;20475;-66
2022/04/22 02:33:42;;;;;;;17.75;10.82;;;;;;;8.46;87.60;100667.00;5348977;27;20030;-67
2022/04/22 02:36:15;;;;;;;16.13;10.60;;;;;;;8.49;87.29;100658.81;5348954;27;20500;-67
2022/04/22 02:38:46;;;;;;;14.88;10.60;;;;;;;8.50;88.16;100656.06;5353785;27;20155;-67
2022/04/22 02:46:57;;;;;;;16.48;10.55;;;;;;;8.45;87.91;100647.53;5349705;27;20035;-66
2022/04/22 02:49:29;;;;;;;16.00;10.88;;;;;;;8.39;88.69;100654.13;5354082;27;20030;-67
2022/04/22 02:52:01;;;;;;;15.35;10.52;;;;;;;8.37;89.09;100650.72;5348831;27;20630;-67
2022/04/22 02:54:33;;;;;;;14.80;11.07;;;;;;;8.29;88.95;100650.41;5347491;27;20031;-66
2022/04/22 02:57:05;;;;;;;17.00;11.88;;;;;;;8.28;89.52;100654.00;5344931;27;20457;-67
2022/04/22 02:59:40;;;;;;;15.43;11.50;;;;;;;8.28;89.32;100648.69;5349744;27;20030;-67
2022/04/22 03:02:11;;;;;;;;;;;;;;;8.26;86.58;100645.28;5349210;27;20023;-67
2022/04/22 03:04:42;;;;;;;16.35;11.63;;;;;;;8.17;90.33;100638.84;5352550;27;20261;-66
2022/04/22 03:07:14;;;;;;;17.40;12.00;;;;;;;8.21;90.05;100642.13;5343740;27;20065;-66
2022/04/22 03:09:45;;;;;;;16.90;12.15;;;;;;;8.18;90.43;100637.03;5352011;27;20503;-66
2022/04/22 03:12:17;;;;;;;17.92;11.75;;;;;;;8.15;89.65;100635.44;5354472;27;20425;-67
2022/04/22 03:14:48;;;;;;;15.88;11.48;;;;;;;8.10;90.02;100634.06;5355841;27;20507;-66
2022/04/22 03:17:19;;;;;;;16.85;12.57;;;;;;;8.08;90.00;100633.31;5357645;27;20074;-66
2022/04/22 03:19:51;;;;;;;17.10;11.48;;;;;;;8.04;90.48;100624.69;5361016;27;20026;-67
2022/04/22 03:22:22;;;;;;;17.45;12.18;;;;;;;7.91;90.43;100629.16;5355296;27;20026;-67
2022/04/22 03:24:53;;;;;;;16.88;12.18;;;;;;;7.99;90.82;100632.97;5354355;27;20907;-67
2022/04/22 03:27:25;;;;;;;17.98;12.25;;;;;;;7.93;91.57;100627.25;5341416;27;20541;-67
2022/04/22 03:29:56;;;;;;;15.48;12.50;;;;;;;7.93;92.52;100630.75;5354667;27;20041;-66
2022/04/22 03:32:27;;;;;;;16.27;12.30;;;;;;;7.91;91.34;100630.00;5355839;27;20034;-66
2022/04/22 03:34:59;;;;;;;16.17;12.32;;;;;;;7.89;92.70;100629.25;5355868;27;20110;-67
2022/04/22 03:37:31;;;;;;;16.88;12.07;;;;;;;7.73;92.05;100628.59;5345123;27;20043;-67
2022/04/22 03:40:03;;;;;;;16.50;12.73;;;;;;;7.76;93.17;100623.94;5356193;27;20075;-66
2022/04/22 03:42:35;;;;;;;18.02;12.70;;;;;;;7.73;92.50;100618.84;5358339;27;20597;-67
2022/04/22 03:45:06;;;;;;;19.50;13.05;;;;;;;7.75;93.27;100622.25;5351266;27;20031;-67
2022/04/22 03:47:38;;;;;;;18.80;13.45;;;;;;;7.71;93.70;100625.19;5359516;27;20035;-66
2022/04/22 03:50:09;;;;;;;20.00;13.18;;;;;;;7.69;93.56;100622.66;5354276;27;20030;-67
2022/04/22 03:52:41;;;;;;;17.70;12.63;;;;;;;7.75;93.40;100621.41;5351597;27;20323;-67
2022/04/22 03:55:12;;;;;;;19.50;13.30;;;;;;;7.64;93.36;100620.31;5351227;27;20087;-67
2022/04/22 04:00:33;;;;;;;20.33;14.57;;;;;;;7.63;93.86;100609.78;5344774;27;20042;-67
2022/04/22 04:03:05;;;;;;;19.92;14.23;;;;;;;7.62;94.38;100613.41;5349831;27;20464;-67
2022/04/22 04:05:37;;;;;;;20.08;14.15;;;;;;;7.56;94.34;100609.38;5347105;27;20050;-67
2022/04/22 04:08:11;;;;;;;22.98;14.50;;;;;;;7.57;94.57;100603.09;5346152;27;20030;-67
2022/04/22 04:16:20;;;;;;;20.00;14.45;;;;;;;7.51;94.61;100602.66;5350281;27;20141;-67
2022/04/22 04:18:51;;;;;;;21.27;14.57;;;;;;;7.57;95.39;100615.53;5350468;27;20392;-66
2022/04/22 04:24:14;;;;;;;18.98;13.65;;;;;;;7.50;95.24;100601.81;5354318;27;20058;-67
2022/04/22 04:26:45;;;;;;;21.00;15.65;;;;;;;7.49;95.83;100601.91;5342606;27;20049;-67
2022/04/22 04:29:16;;;;;;;21.88;14.82;;;;;;;7.45;95.64;100598.63;5356374;27;20141;-67
2022/04/22 04:31:47;;;;;;;20.60;15.07;;;;;;;7.47;96.05;100596.72;5352501;27;20030;-67
2022/04/22 04:34:19;;;;;;;20.02;15.00;;;;;;;7.43;96.46;100593.41;5356518;27;20037;-67
2022/04/22 04:36:50;;;;;;;20.83;15.27;;;;;;;7.41;96.26;100602.44;5347367;27;20098;-67
2022/04/22 04:39:21;;;;;;;21.60;14.73;;;;;;;7.40;96.46;100595.41;5355180;27;20488;-67
2022/04/22 04:41:53;;;;;;;21.17;15.27;;;;;;;7.42;96.54;100607.66;5357116;27;20038;-67
2022/04/22 04:44:25;;;;;;;24.00;16.13;;;;;;;7.44;96.75;100607.53;5356858;27;20405;-67
2022/04/22 04:46:56;;;;;;;21.25;15.65;;;;;;;7.44;96.38;100605.75;5344166;27;20068;-67
2022/04/22 04:49:28;;;;;;;21.60;15.40;;;;;;;7.46;96.45;100606.47;5348361;27;20034;-67
2022/04/22 04:51:59;;;;;;;23.63;16.00;;;;;;;7.49;96.91;100605.41;5346240;27;20028;-67
2022/04/22 04:54:30;;;;;;;22.90;15.65;;;;;;;7.48;97.29;100601.06;5347842;27;20023;-67
2022/04/22 04:57:02;;;;;;;22.20;15.45;;;;;;;7.52;97.14;100601.72;5347223;27;20038;-67
2022/04/22 04:59:34;;;;;;;22.83;16.10;;;;;;;7.48;97.28;100595.78;5355778;27;20038;-67
2022/04/22 05:02:05;;;;;;;23.20;15.77;;;;;;;7.53;97.85;100598.09;5349571;27;20425;-67
2022/04/22 05:04:36;;;;;;;24.45;15.73;;;;;;;7.54;97.40;100587.38;5353219;27;20035;-66
2022/04/22 05:07:08;;;;;;;22.33;15.93;;;;;;;7.55;97.47;100598.84;5352388;27;20034;-67
2022/04/22 05:09:39;;;;;;;23.83;15.60;;;;;;;7.56;97.72;100590.78;5346621;27;20114;-67
2022/04/22 05:12:10;;;;;;;23.27;15.65;;;;;;;7.57;97.62;100594.28;5350625;27;20445;-67
2022/04/22 05:14:42;;;;;;;24.50;15.90;;;;;;;7.62;98.20;100600.13;5350679;27;20030;-67
2022/04/22 05:17:13;;;;;;;21.15;15.32;;;;;;;7.62;98.14;100602.78;5346669;27;20054;-67
2022/04/22 05:19:44;;;;;;;24.30;16.55;;;;;;;7.62;98.24;100595.66;5346361;27;20027;-67
2022/04/22 05:22:15;;;;;;;23.25;16.52;;;;;;;7.71;98.27;100601.28;5355678;27;20038;-67
2022/04/22 05:24:47;;;;;;;22.92;16.50;;;;;;;7.69;98.14;100606.75;5345057;27;20031;-67
2022/04/22 05:27:18;;;;;;;24.00;16.58;;;;;;;7.74;98.38;100604.59;5348032;27;20033;-67
2022/04/22 05:32:40;;;;;;;25.73;16.55;;;;;;;7.81;98.38;100599.72;5346594;27;20043;-67
2022/04/22 05:35:11;;;;;;;22.90;16.15;;;;;;;7.85;98.32;100606.53;5354409;27;20038;-67
2022/04/22 05:37:46;;;;;;;23.85;17.25;;;;;;;7.89;98.92;100613.31;5354387;27;20026;-67
2022/04/22 05:40:23;;;;;;;27.52;16.63;;;;;;;7.95;98.92;100607.56;5360105;27;20464;-67
2022/04/22 05:42:55;;;;;;;24.65;16.45;;;;;;;7.99;98.87;100606.41;5353885;27;20105;-67
2022/04/22 05:45:27;;;;;;;26.17;17.42;;;;;;;8.00;98.56;100613.44;5355725;27;20027;-67
2022/04/22 05:47:59;;;;;;;26.23;17.27;;;;;;;8.07;98.59;100613.84;5359150;27;20019;-67
2022/04/22 05:50:30;;;;;;;23.25;17.90;;;;;;;8.12;99.03;100618.84;5357727;27;20072;-67
2022/04/22 05:53:01;;;;;;;24.20;17.85;;;;;;;8.18;99.14;100621.06;5354009;27;20031;-67
2022/04/22 05:55:33;;;;;;;25.23;18.15;;;;;;;8.23;98.83;100613.63;5343844;27;20039;-67
2022/04/22 05:58:04;;;;;;;24.23;19.10;;;;;;;8.31;98.98;100613.94;5350555;27;20737;-67
2022/04/22 06:00:35;;;;;;;26.33;19.15;;;;;;;8.35;99.07;100612.75;5343621;27;20053;-67
2022/04/22 06:03:07;;;;;;;28.08;19.50;;;;;;;8.40;98.88;100615.94;5347749;27;20315;-67
2022/04/22 06:05:38;;;;;;;26.10;18.65;;;;;;;8.50;98.94;100613.50;5353877;27;20145;-67
2022/04/22 06:10:59;;;;;;;25.75;19.13;;;;;;;8.61;98.30;100621.56;5352094;27;20038;-67
2022/04/22 06:13:30;;;;;;;27.80;19.60;;;;;;;8.67;98.72;100611.44;5350642;27;20030;-67
2022/04/22 06:16:02;;;;;;;26.63;19.88;;;;;;;8.73;98.34;100613.66;5359833;27;20078;-67
2022/04/22 06:18:33;;;;;;;28.10;19.88;;;;;;;8.79;97.96;100608.75;5346588;27;20038;-67
2022/04/22 06:21:04;;;;;;;26.90;19.38;;;;;;;8.86;98.13;100609.16;5354617;27;20121;-67
2022/04/22 06:23:36;;;;;;;27.63;19.55;;;;;;;8.93;97.89;100609.53;5347143;27;20035;-67
2022/04/22 06:26:07;;;;;;;29.30;20.23;;;;;;;8.98;97.94;100612.72;5347188;27;20031;-67
2022/04/22 06:28:38;;;;;;;26.42;19.52;;;;;;;9.06;97.34;100610.34;5348661;27;20023;-67
2022/04/22 06:31:10;;;;;;;28.63;19.75;;;;;;;9.11;97.48;100605.53;5333551;27;20038;-67
2022/04/22 06:33:41;;;;;;;25.48;19.85;;;;;;;9.21;97.12;100605.69;5341807;27;20058;-67
2022/04/22 06:36:14;;;;;;;26.90;20.15;;;;;;;9.31;96.76;100605.84;5343720;27;20037;-67
2022/04/22 06:38:46;;;;;;;27.20;21.23;;;;;;;9.39;96.68;100606.97;5350757;27;20026;-67
2022/04/22 06:47:17;;;;;;;27.30;20.13;;;;;;;9.76;94.85;100604.19;5250711;28;20075;-67
2022/04/22 06:49:49;;;;;;;26.45;20.88;;;;;;;9.92;94.65;100606.50;5246871;28;20123;-67
2022/04/22 06:52:20;;;;;;;25.52;19.88;;;;;;;10.01;94.10;100608.44;5304851;27;20382;-67
2022/04/22 06:54:52;;;;;;;25.10;19.48;;;;;;;10.07;93.06;100604.47;5334254;27;20031;-67
2022/04/22 06:57:24;;;;;;;23.63;19.45;;;;;;;10.22;93.51;100610.41;5353459;27;20030;-67
2022/04/22 06:59:56;;;;;;;26.35;20.13;;;;;;;10.26;92.02;100606.53;5350131;27;20480;-67
2022/04/22 07:02:28;;;;;;;24.00;19.20;;;;;;;10.43;91.85;100601.69;5348641;27;20023;-67
2022/04/22 07:04:59;;;;;;;26.40;19.15;;;;;;;10.57;91.40;100602.28;5354582;27;20066;-67
2022/04/22 07:07:31;;;;;;;24.75;19.48;;;;;;;10.68;89.88;100598.75;5352977;27;20109;-67
2022/04/22 07:10:03;;;;;;;23.88;18.13;;;;;;;10.74;89.49;100603.59;5354481;27;20027;-67
2022/04/22 07:12:34;;;;;;;22.52;18.05;;;;;;;10.84;88.62;100602.84;5353157;27;20087;-67
2022/04/22 07:15:06;;;;;;;26.23;18.90;;;;;;;10.95;88.35;100598.31;5351664;27;20030;-68
2022/04/22 07:17:40;;;;;;;22.70;17.77;;;;;;;11.10;87.62;100590.88;5347407;27;20053;-67
2022/04/22 07:20:13;;;;;;;22.15;18.10;;;;;;;11.21;87.76;100594.47;5354533;27;20229;-67
2022/04/22 07:22:44;;;;;;;22.00;17.95;;;;;;;11.31;86.24;100592.72;5330151;27;20043;-67
2022/04/22 07:25:17;;;;;;;21.92;18.25;;;;;;;11.43;85.76;100589.03;5347028;27;20095;-67
2022/04/22 07:27:48;;;;;;;24.40;17.85;;;;;;;11.54;85.45;100596.13;5351847;27;20035;-67
2022/04/22 07:30:21;;;;;;;21.02;16.85;;;;;;;11.65;85.48;100592.56;5350990;27;20038;-67
2022/04/22 07:32:53;;;;;;;21.30;17.23;;;;;;;11.88;84.20;100580.72;5352731;27;20025;-67
2022/04/22 07:35:24;;;;;;;19.63;16.40;;;;;;;12.06;83.16;100581.00;5351360;27;20035;-67
2022/04/22 07:37:56;;;;;;;20.67;17.08;;;;;;;12.11;82.45;100585.94;5353240;27;20436;-67
2022/04/22 07:40:27;;;;;;;21.35;17.13;;;;;;;12.15;80.96;100582.84;5351434;27;20062;-67
2022/04/22 07:48:40;;;;;;;20.27;16.33;;;;;;;12.30;81.10;100585.19;5354420;27;20026;-67
2022/04/22 07:51:11;;;;;;;19.23;16.00;;;;;;;12.42;79.61;100583.25;5351364;27;20034;-67
2022/04/22 07:53:43;;;;;;;18.42;15.88;;;;;;;12.38;77.62;100584.50;5352955;27;20038;-67
2022/04/22 07:56:14;;;;;;;20.05;15.73;;;;;;;12.62;79.25;100594.84;5351555;27;20503;-67
2022/04/22 07:58:45;;;;;;;17.13;15.30;;;;;;;12.58;78.33;100580.91;5353941;27;20479;-67
2022/04/22 08:01:17;;;;;;;17.90;15.45;;;;;;;12.82;78.29;100585.88;5347949;27;20536;-67
2022/04/22 08:03:48;;;;;;;19.65;15.27;;;;;;;12.95;77.22;100575.75;5352977;27;20050;-67
2022/04/22 08:06:20;;;;;;;19.27;15.75;;;;;;;13.05;77.28;100586.47;5353509;27;21525;-67
2022/04/22 08:08:51;;;;;;;18.52;14.32;;;;;;;13.22;76.78;100582.25;5351651;27;20413;-67
2022/04/22 08:11:22;;;;;;;18.42;15.25;;;;;;;13.49;75.59;100583.41;5353939;27;20337;-67
2022/04/22 08:13:55;;;;;;;19.02;14.57;;;;;;;13.54;74.52;100575.78;5353896;27;20126;-67
2022/04/22 08:16:26;;;;;;;17.42;14.20;;;;;;;13.55;74.25;100576.63;5352226;27;20119;-67
2022/04/22 08:18:58;;;;;;;18.15;14.15;;;;;;;13.57;72.77;100575.47;5356209;27;20072;-67
2022/04/22 08:21:33;;;;;;;17.70;14.38;;;;;;;13.54;73.25;100573.09;5352416;27;20019;-67
2022/04/22 08:24:06;;;;;;;17.65;14.07;;;;;;;13.59;72.78;100568.13;5353853;27;20031;-67
2022/04/22 08:26:38;;;;;;;16.23;13.65;;;;;;;13.58;72.75;100573.66;5352579;27;20188;-67
2022/04/22 08:29:09;;;;;;;17.58;13.93;;;;;;;13.56;72.48;100568.44;5349707;27;20027;-67
2022/04/22 08:31:41;;;;;;;19.23;14.80;;;;;;;13.66;74.51;100569.25;5348176;27;20541;-67
2022/04/22 08:34:12;;;;;;;20.75;14.40;;;;;;;13.59;72.50;100578.03;5350312;27;20019;-67
2022/04/22 08:36:45;;;;;;;18.45;15.13;;;;;;;13.70;74.19;100559.94;5351272;27;20026;-67
2022/04/22 08:39:17;;;;;;;17.95;14.98;;;;;;;13.68;72.75;100545.84;5353930;27;20543;-67
2022/04/22 08:41:48;;;;;;;18.40;15.50;;;;;;;13.82;73.50;100538.31;5351486;27;20030;-67
2022/04/22 08:44:21;;;;;;;17.20;15.10;;;;;;;14.05;71.78;100547.69;5351290;27;20388;-67
2022/04/22 08:50:02;;;;;;;19.13;15.38;;;;;;;14.41;70.28;100542.44;5352296;27;20118;-67
2022/04/22 08:52:35;;;;;;;17.00;13.65;;;;;;;14.69;69.77;100558.56;5353425;27;20456;-68
2022/04/22 08:55:07;;;;;;;16.90;13.73;;;;;;;14.79;67.72;100550.44;5350807;27;20035;-67
2022/04/22 08:57:41;;;;;;;16.80;14.05;;;;;;;15.09;68.45;100558.13;5351347;27;20087;-67
2022/04/22 09:00:12;;;;;;;17.90;14.43;;;;;;;15.05;68.44;100554.06;5351887;27;20463;-67
2022/04/22 09:02:44;;;;;;;17.23;14.02;;;;;;;15.09;66.36;100546.50;5352343;27;20033;-67
2022/04/22 09:05:15;;;;;;;16.52;13.70;;;;;;;14.92;67.50;100558.97;5349892;27;20043;-67
2022/04/22 09:07:47;;;;;;;18.85;14.63;;;;;;;14.75;67.01;100562.50;5349555;27;20385;-67
2022/04/22 09:10:19;;;;;;;15.77;13.80;;;;;;;14.83;66.74;100552.66;5350073;27;20438;-68
2022/04/22 09:12:56;;;;;;;17.15;13.75;;;;;;;14.84;66.44;100557.03;5347921;27;20023;-67
2022/04/22 09:15:31;;;;;;;16.70;14.18;;;;;;;14.80;67.21;100546.75;5350142;27;20710;-67
2022/04/22 09:18:11;;;;;;;14.02;12.52;;;;;;;14.97;67.16;100545.91;5352566;27;20587;-67
2022/04/22 09:20:45;;;;;;;18.98;13.25;;;;;;;15.07;67.28;100543.13;5350911;27;20426;-68
2022/04/22 09:23:31;;;;;;;15.95;13.32;;;;;;;15.24;66.58;100534.22;5352775;27;20151;-67
2022/04/22 09:26:05;;;;;;;14.45;12.65;;;;;;;15.23;64.81;100521.78;5351873;27;20109;-68
2022/04/22 09:28:38;;;;;;;14.35;11.75;;;;;;;15.46;63.75;100532.88;5349351;27;20027;-67
2022/04/22 09:31:10;;;;;;;14.60;12.07;;;;;;;15.54;63.04;100521.34;5351197;27;20079;-68
2022/04/22 09:33:41;;;;;;;14.50;10.95;;;;;;;15.54;61.92;100523.19;5348373;27;20425;-67
2022/04/22 09:45:08;;;;;;;13.80;11.40;;;;;;;15.26;61.45;100512.56;5346717;27;20051;-67
2022/04/22 09:47:40;;;;;;;13.63;11.40;;;;;;;15.36;63.24;100505.25;5353819;27;20058;-67
2022/04/22 09:50:12;;;;;;;13.82;12.15;;;;;;;15.34;63.95;100495.66;5351090;27;20092;-67
2022/04/22 09:52:46;;;;;;;17.83;11.98;;;;;;;15.46;61.66;100500.63;5352377;27;20015;-67
2022/04/22 09:55:18;;;;;;;13.00;11.38;;;;;;;15.43;62.33;100494.72;5349426;27;20465;-62
2022/04/22 09:57:57;;;;;;;14.23;11.68;;;;;;;15.39;61.77;100487.97;5348894;27;20032;-62
2022/04/22 10:00:31;;;;;;;13.82;11.63;;;;;;;15.32;61.28;100481.53;5345886;27;20362;-62
2022/04/22 10:03:04;;;;;;;14.45;11.60;;;;;;;15.48;62.07;100495.94;5349515;27;20027;-62
2022/04/22 10:05:36;;;;;;;14.60;10.27;;;;;;;15.63;61.74;100485.44;5346272;27;20028;-62
2022/04/22 10:08:08;;;;;;;10.98;9.25;;;;;;;15.71;59.37;100483.81;5339943;27;20125;-62
2022/04/22 10:10:40;;;;;;;12.77;9.57;;;;;;;15.76;59.78;100489.56;5349275;27;20503;-62
2022/04/22 10:13:15;;;;;;;11.57;9.52;;;;;;;15.63;57.23;100484.59;5344367;27;20585;-62
2022/04/22 10:15:47;;;;;;;11.98;9.52;;;;;;;15.43;58.30;100481.28;5349333;27;20027;-63
2022/04/22 10:18:20;;;;;;;9.57;8.57;;;;;;;15.35;58.06;100487.44;5348211;27;20040;-62
2022/04/22 10:20:51;;;;;;;12.50;10.25;;;;;;;15.41;58.60;100476.03;5350472;27;20034;-62
2022/04/22 10:23:23;;;;;;;11.55;9.93;;;;;;;15.37;59.22;100480.06;5347475;27;20043;-63
2022/04/22 10:25:54;;;;;;;11.40;10.00;;;;;;;15.45;58.74;100479.25;5348893;27;20050;-62
2022/04/22 10:28:28;;;;;;;12.13;10.40;;;;;;;15.40;59.56;100471.69;5344136;27;20027;-62
2022/04/22 10:31:03;;;;;;;10.75;9.65;;;;;;;15.46;58.71;100475.59;5342370;27;20038;-62
2022/04/22 10:33:41;;;;;;;;;;;;;;;15.86;60.32;100469.63;5349164;27;20039;-62
2022/04/22 10:36:18;;;;;;;12.95;11.48;;;;;;;15.84;58.87;100465.41;5345318;27;19911;-63
2022/04/22 10:38:50;;;;;;;13.68;11.25;;;;;;;15.87;58.30;100465.06;5349461;27;20068;-63
2022/04/22 10:41:22;;;;;;;13.15;11.73;;;;;;;15.82;57.49;100465.56;5349317;27;20027;-62
2022/04/22 10:49:39;;;;;;;12.68;10.75;;;;;;;15.58;58.28;100457.34;5346371;27;20043;-62
2022/04/22 10:52:18;;;;;;;12.70;10.57;;;;;;;15.70;58.02;100464.09;5345698;27;20019;-62
2022/04/22 10:54:55;;;;;;;11.82;10.52;;;;;;;15.52;58.11;100464.19;5346114;27;20287;-62
2022/04/22 10:57:33;;;;;;;12.85;10.65;;;;;;;15.52;57.97;100455.28;5345355;27;20684;-63
2022/04/22 11:00:08;;;;;;;12.18;10.32;;;;;;;15.44;58.26;100454.22;5348306;27;20030;-62
2022/04/22 11:02:41;;;;;;;13.70;10.57;;;;;;;15.56;57.13;100452.09;5344619;27;20416;-62
2022/04/22 11:05:19;;;;;;;12.60;11.02;;;;;;;15.73;57.38;100445.00;5346591;27;20093;-62
2022/04/22 11:07:50;;;;;;;12.32;10.93;;;;;;;15.71;56.71;100446.97;5344855;27;20062;-62
2022/04/22 11:10:27;;;;;;;16.10;11.05;;;;;;;15.81;56.71;100449.59;5346662;27;20067;-63
2022/04/22 11:13:02;;;;;;;13.13;11.70;;;;;;;15.73;56.92;100445.00;5350016;27;20037;-63
2022/04/22 11:15:42;;;;;;;12.45;10.68;;;;;;;15.77;56.20;100440.97;5351076;27;20089;-62
2022/04/22 11:18:15;;;;;;;12.82;10.95;;;;;;;15.83;56.35;100445.72;5346398;27;20141;-62
2022/04/22 11:20:52;;;;;;;13.10;10.73;;;;;;;15.99;56.18;100438.72;5349646;27;20027;-62
2022/04/22 11:23:23;;;;;;;14.02;11.90;;;;;;;16.12;56.53;100439.09;5344597;27;20030;-62
2022/04/22 11:25:57;;;;;;;14.45;11.05;;;;;;;16.17;55.88;100438.63;5350463;27;20030;-62
2022/04/22 11:28:33;;;;;;;14.18;11.68;;;;;;;16.04;56.46;100423.75;5348089;27;20027;-62
2022/04/22 11:31:07;;;;;;;15.45;11.85;;;;;;;15.86;56.51;100436.50;5324316;27;20031;-62
2022/04/22 11:33:57;;;;;;;15.40;11.73;;;;;;;15.79;57.33;100441.66;5350222;27;20034;-62
2022/04/22 11:36:28;;;;;;;15.95;11.85;;;;;;;15.59;56.61;100438.34;5350545;27;20461;-62
2022/04/22 11:39:00;;;;;;;13.90;11.40;;;;;;;15.46;56.66;100438.78;5352845;27;20114;-62
2022/04/22 11:41:31;;;;;;;15.20;12.07;;;;;;;15.37;57.92;100434.34;5356108;27;20047;-62
2022/04/22 11:44:04;;;;;;;14.68;11.50;;;;;;;15.33;57.87;100442.91;5351574;27;20126;-62
2022/04/22 11:46:37;;;;;;;14.17;11.33;;;;;;;15.28;57.45;100435.28;5355580;27;20029;-62
2022/04/22 11:49:09;;;;;;;12.93;11.63;;;;;;;15.40;58.12;100431.34;5351816;27;20287;-62
2022/04/22 11:51:41;;;;;;;14.50;11.98;;;;;;;15.60;57.89;100428.44;5352940;27;20162;-62
2022/04/22 11:54:21;;;;;;;14.13;12.60;;;;;;;15.71;57.87;100430.84;5350888;27;20018;-62
2022/04/22 11:56:53;;;;;;;17.83;12.90;;;;;;;15.74;57.07;100425.16;5353499;27;20031;-62
2022/04/22 11:59:24;;;;;;;15.98;12.43;;;;;;;15.90;56.71;100427.09;5348240;27;20042;-63
2022/04/22 12:10:27;;;;;;;15.70;12.00;;;;;;;16.29;57.27;100410.38;5350925;27;20432;-62
2022/04/22 12:13:03;;;;;;;14.00;11.95;;;;;;;16.31;56.70;100408.34;5348680;27;20469;-62
2022/04/22 12:15:42;;;;;;;15.90;12.63;;;;;;;16.43;56.75;100411.56;5353137;27;20065;-63
2022/04/22 12:18:31;;;;;;;15.38;12.00;;;;;;;16.67;56.88;100406.22;5353091;27;20058;-62
2022/04/22 12:21:04;;;;;;;15.60;11.63;;;;;;;16.72;55.91;100416.50;5349384;27;20038;-63
2022/04/22 12:23:40;;;;;;;14.15;10.85;;;;;;;16.96;55.82;100410.28;5346769;27;20400;-64
2022/04/22 12:26:19;;;;;;;13.55;11.30;;;;;;;17.01;55.42;100405.22;5344233;27;21818;-63
2022/04/22 12:29:13;;;;;;;14.07;11.55;;;;;;;17.09;54.95;100407.06;5352414;27;20507;-63
2022/04/22 12:31:47;;;;;;;17.25;11.98;;;;;;;17.17;53.87;100407.03;5352548;27;20041;-62
2022/04/22 12:34:30;;;;;;;13.43;11.23;;;;;;;17.21;53.01;100399.47;5351356;27;20038;-63
2022/04/22 12:37:03;;;;;;;13.20;10.68;;;;;;;17.23;53.82;100402.81;5349291;27;20038;-63
2022/04/22 12:39:40;;;;;;;14.13;11.13;;;;;;;17.22;52.78;100404.69;5349648;27;20085;-63
2022/04/22 12:42:15;;;;;;;13.65;10.90;;;;;;;17.22;53.13;100398.44;5351666;27;20392;-63
2022/04/22 12:54:12;;;;;;;11.43;10.23;;;;;;;17.20;52.20;100376.19;5350583;27;20027;-63
2022/04/22 12:56:52;;;;;;;13.00;9.45;;;;;;;17.31;52.58;100370.44;5348324;27;20080;-63